Time;durP1;ratioP1;P1;durP2;ratioP2;P2;SDS_P1;SDS_P2;PMS_P1;PMS_P2;Temp;Humidity;BMP_temperature;BMP_pressure;BME280_temperature;BME280_humidity;BME280_pressure;Samples;Min_cycle;Max_cycle;Signal;HPM_P1;HPM_P2
2023/01/11 00:00:23;;;;;;;25.75;15.25;;;4.70;99.90;;;;;;5098258;28;20032;-76
2023/01/11 00:02:55;;;;;;;20.33;11.95;;;4.70;99.90;;;;;;5097683;28;20024;-76
2023/01/11 00:05:21;;;;;;;22.85;13.60;;;4.60;99.90;;;;;;5095418;28;20039;-77
2023/01/11 00:07:47;;;;;;;71.90;36.20;;;4.60;99.90;;;;;;5079418;28;20024;-77
2023/01/11 00:10:12;;;;;;;21.85;12.65;;;4.60;99.90;;;;;;5092709;28;20056;-77
2023/01/11 00:12:38;;;;;;;21.90;14.02;;;4.60;99.90;;;;;;5098225;28;20059;-76
2023/01/11 00:15:04;;;;;;;18.60;13.93;;;4.60;99.90;;;;;;5092804;28;20024;-76
2023/01/11 00:17:30;;;;;;;18.70;11.13;;;4.50;99.90;;;;;;5098847;28;20020;-77
2023/01/11 00:19:55;;;;;;;25.48;12.20;;;4.50;99.90;;;;;;5081012;28;20028;-77
2023/01/11 00:22:21;;;;;;;26.08;13.80;;;4.50;99.90;;;;;;5099686;28;20484;-77
2023/01/11 00:24:47;;;;;;;27.67;13.90;;;4.50;99.90;;;;;;5091505;28;20024;-77
2023/01/11 00:27:12;;;;;;;25.23;13.50;;;4.50;99.90;;;;;;5092917;28;20024;-77
2023/01/11 00:29:38;;;;;;;23.70;12.52;;;4.40;99.90;;;;;;5092769;28;20024;-76
2023/01/11 00:32:04;;;;;;;26.80;12.50;;;4.30;99.90;;;;;;5098718;28;20028;-76
2023/01/11 00:34:30;;;;;;;19.92;13.18;;;4.30;99.90;;;;;;5090434;28;20023;-77
2023/01/11 00:36:55;;;;;;;28.42;13.93;;;4.30;99.90;;;;;;5099232;28;20028;-77
2023/01/11 00:39:21;;;;;;;24.83;13.98;;;4.30;99.90;;;;;;5088961;28;20031;-77
2023/01/11 00:50:01;;;;;;;21.50;11.85;;;4.20;99.90;;;;;;5091882;28;20035;-77
2023/01/11 00:52:27;;;;;;;20.65;11.75;;;4.20;99.90;;;;;;5080300;28;20521;-77
2023/01/11 00:54:53;;;;;;;31.30;14.95;;;4.20;99.90;;;;;;5094625;28;20085;-77
2023/01/11 00:57:19;;;;;;;27.08;15.05;;;4.20;99.90;;;;;;5098459;28;20020;-77
2023/01/11 00:59:44;;;;;;;21.95;13.63;;;4.30;99.90;;;;;;5087751;28;20025;-76
2023/01/11 01:02:11;;;;;;;25.65;12.30;;;4.30;99.90;;;;;;5099009;28;20099;-76
2023/01/11 01:04:38;;;;;;;22.08;13.40;;;4.20;99.90;;;;;;5089217;28;20029;-77
2023/01/11 01:07:04;;;;;;;14.13;11.07;;;4.20;99.90;;;;;;5080401;28;20028;-77
2023/01/11 01:09:30;;;;;;;16.92;12.10;;;4.10;99.90;;;;;;5089267;28;20079;-77
2023/01/11 01:11:56;;;;;;;30.77;15.00;;;4.10;99.90;;;;;;5097982;28;20051;-77
2023/01/11 01:14:25;;;;;;;24.42;14.25;;;4.10;99.90;;;;;;5085229;28;20029;-76
2023/01/11 01:17:01;;;;;;;19.25;12.80;;;4.10;99.90;;;;;;5079977;28;20031;-77
2023/01/11 01:19:29;;;;;;;22.30;13.68;;;4.10;99.90;;;;;;5079413;28;20060;-77
2023/01/11 01:21:56;;;;;;;19.73;13.10;;;4.10;99.90;;;;;;5070631;28;20028;-77
2023/01/11 01:24:22;;;;;;;19.35;12.73;;;4.10;99.90;;;;;;5079488;28;20059;-77
2023/01/11 01:26:48;;;;;;;25.52;13.07;;;4.00;99.90;;;;;;5097862;28;20042;-77
2023/01/11 01:29:14;;;;;;;20.63;12.32;;;4.00;99.90;;;;;;5079456;28;20438;-76
2023/01/11 01:31:41;;;;;;;17.67;11.55;;;3.90;99.90;;;;;;5098064;28;20038;-77
2023/01/11 01:34:08;;;;;;;17.25;11.98;;;4.00;99.90;;;;;;5093195;28;20035;-76
2023/01/11 01:36:34;;;;;;;23.30;11.73;;;3.90;99.90;;;;;;5079721;28;20020;-77
2023/01/11 01:39:00;;;;;;;19.33;11.35;;;3.90;99.90;;;;;;5079249;28;20040;-76
2023/01/11 01:41:27;;;;;;;18.70;12.43;;;3.90;99.90;;;;;;5098262;28;20052;-76
2023/01/11 01:43:55;;;;;;;22.58;10.82;;;3.90;99.90;;;;;;5091885;28;20391;-76
2023/01/11 01:46:25;;;;;;;25.38;12.57;;;3.90;99.90;;;;;;5075934;28;20045;-76
2023/01/11 01:49:06;;;;;;;17.48;11.88;;;3.90;99.90;;;;;;5079034;28;20020;-77
2023/01/11 01:51:40;;;;;;;21.27;11.95;;;3.80;99.90;;;;;;5095233;28;20099;-76
2023/01/11 01:54:11;;;;;;;23.00;12.98;;;3.80;99.90;;;;;;5093543;28;20047;-76
2023/01/11 01:56:44;;;;;;;20.23;13.02;;;3.80;99.90;;;;;;5096026;28;20019;-76
2023/01/11 01:59:12;;;;;;;17.13;11.35;;;3.80;99.90;;;;;;5078901;28;20483;-76
2023/01/11 02:01:47;;;;;;;20.90;12.82;;;3.80;99.90;;;;;;5096839;28;20027;-77
2023/01/11 02:04:34;;;;;;;20.42;13.18;;;3.80;99.90;;;;;;5090897;28;20512;-76
2023/01/11 02:07:26;;;;;;;19.77;12.65;;;3.70;99.90;;;;;;5088683;28;20016;-76
2023/01/11 02:09:55;;;;;;;19.17;12.00;;;3.70;99.90;;;;;;5072149;28;20042;-77
2023/01/11 02:12:23;;;;;;;16.83;12.40;;;3.70;99.90;;;;;;5097053;28;20065;-76
2023/01/11 02:14:51;;;;;;;22.42;12.65;;;3.70;99.90;;;;;;5089483;28;20067;-76
2023/01/11 02:17:17;;;;;;;27.42;14.13;;;3.70;99.90;;;;;;5097403;28;20035;-76
2023/01/11 02:20:07;;;;;;;23.52;12.85;;;3.70;99.90;;;;;;5090449;28;20032;-77
2023/01/11 02:23:06;;;;;;;14.18;12.07;;;3.80;99.90;;;;;;5096457;28;20031;-77
2023/01/11 02:25:50;;;;;;;17.00;11.13;;;3.70;99.90;;;;;;5090764;28;20088;-77
2023/01/11 02:28:25;;;;;;;14.02;9.43;;;3.70;99.90;;;;;;5093623;28;20036;-77
2023/01/11 02:31:03;;;;;;;12.40;8.77;;;3.60;99.90;;;;;;5078974;28;20028;-77
2023/01/11 02:33:39;;;;;;;16.65;9.60;;;3.60;99.90;;;;;;5094968;28;20518;-77
2023/01/11 02:36:29;;;;;;;17.85;10.65;;;3.60;99.90;;;;;;5097103;28;20024;-77
2023/01/11 02:39:18;;;;;;;18.15;11.20;;;3.60;99.90;;;;;;5086382;28;20473;-77
2023/01/11 02:45:01;;;;;;;20.20;11.60;;;3.50;99.90;;;;;;5089314;28;20051;-77
2023/01/11 02:47:47;;;;;;;20.58;11.10;;;3.50;99.90;;;;;;5075279;28;20107;-77
2023/01/11 02:50:18;;;;;;;17.50;10.30;;;3.50;99.90;;;;;;5083970;28;20032;-77
2023/01/11 02:52:56;;;;;;;17.00;11.00;;;3.50;99.90;;;;;;5095180;28;20464;-77
2023/01/11 02:55:27;;;;;;;11.20;9.82;;;3.50;99.90;;;;;;5088409;28;20023;-76
2023/01/11 02:57:57;;;;;;;18.38;10.85;;;3.50;99.90;;;;;;5099612;28;20028;-77
2023/01/11 03:00:24;;;;;;;20.27;11.30;;;3.40;99.90;;;;;;5090625;28;20032;-76
2023/01/11 03:03:08;;;;;;;16.13;10.07;;;3.40;99.90;;;;;;5081239;28;20514;-76
2023/01/11 03:05:39;;;;;;;13.15;9.65;;;3.40;99.90;;;;;;5079651;28;20024;-76
2023/01/11 03:08:14;;;;;;;;;;;3.40;99.90;;;;;;5098855;28;20036;-76
2023/01/11 03:12:50;;;;;;;13.15;9.73;;;3.40;99.90;;;;;;5071129;28;20278;-76
2023/01/11 03:14:38;;;;;;;14.82;9.80;;;3.50;99.90;;;;;;4988185;28;20046;-77
2023/01/11 03:17:29;;;;;;;13.93;8.85;;;3.50;99.90;;;;;;4989287;28;20108;-76
2023/01/11 03:20:30;;;;;;;16.45;9.27;;;3.40;99.90;;;;;;5089555;28;20436;-76
2023/01/11 03:23:11;;;;;;;17.65;9.30;;;3.50;99.90;;;;;;5098029;28;20031;-77
2023/01/11 03:25:39;;;;;;;12.82;9.18;;;3.50;99.90;;;;;;5071107;28;20039;-76
2023/01/11 03:28:22;;;;;;;14.77;9.60;;;3.50;99.90;;;;;;5097681;28;20494;-77
2023/01/11 03:31:03;;;;;;;21.17;9.23;;;3.40;99.90;;;;;;5091555;28;20043;-77
2023/01/11 03:33:47;;;;;;;12.25;8.90;;;3.40;99.90;;;;;;5078636;28;20021;-77
2023/01/11 03:36:22;;;;;;;14.88;9.15;;;3.50;99.90;;;;;;5092766;28;20510;-77
2023/01/11 03:39:09;;;;;;;18.13;9.93;;;3.40;99.90;;;;;;5094030;28;20012;-77
2023/01/11 03:41:40;;;;;;;13.30;8.57;;;3.40;99.90;;;;;;5096614;28;20061;-77
2023/01/11 03:44:08;;;;;;;14.07;8.90;;;3.40;99.90;;;;;;5094288;28;20099;-77
2023/01/11 03:47:01;;;;;;;11.23;8.73;;;3.40;99.90;;;;;;5096192;28;20530;-77
2023/01/11 03:49:48;;;;;;;13.18;8.68;;;3.40;99.90;;;;;;5081929;28;20033;-76
2023/01/11 03:52:16;;;;;;;12.20;8.15;;;3.40;99.90;;;;;;5098954;28;20020;-76
2023/01/11 03:54:44;;;;;;;12.40;8.93;;;3.40;99.90;;;;;;5086816;28;20031;-76
2023/01/11 03:57:18;;;;;;;11.43;7.95;;;3.40;99.90;;;;;;5098962;28;20020;-77
2023/01/11 03:59:45;;;;;;;14.90;7.78;;;3.30;99.90;;;;;;5088381;28;20024;-77
2023/01/11 04:02:16;;;;;;;10.20;7.45;;;3.30;99.90;;;;;;5081307;28;20388;-76
2023/01/11 04:04:42;;;;;;;11.88;7.38;;;3.30;99.90;;;;;;5089619;28;20481;-77
2023/01/11 04:07:08;;;;;;;9.20;8.23;;;3.40;99.90;;;;;;5097849;28;20062;-77
2023/01/11 04:09:34;;;;;;;9.15;7.35;;;3.30;99.90;;;;;;5090776;28;20024;-77
2023/01/11 04:11:59;;;;;;;10.15;7.97;;;3.30;99.90;;;;;;5080649;28;20403;-77
2023/01/11 04:14:25;;;;;;;10.15;7.80;;;3.30;99.90;;;;;;5086374;28;20116;-76
2023/01/11 04:16:50;;;;;;;12.98;7.10;;;3.30;99.90;;;;;;5089755;28;20024;-77
2023/01/11 04:19:16;;;;;;;14.40;8.55;;;3.30;99.90;;;;;;5081132;28;20028;-77
2023/01/11 04:21:42;;;;;;;9.18;7.43;;;3.30;99.90;;;;;;5081358;28;20020;-77
2023/01/11 04:24:07;;;;;;;12.80;8.50;;;3.30;99.90;;;;;;5091913;28;20495;-77
2023/01/11 04:26:33;;;;;;;12.57;8.50;;;3.30;99.90;;;;;;5090909;28;20368;-77
2023/01/11 04:28:59;;;;;;;13.32;8.60;;;3.30;99.90;;;;;;5092855;28;20088;-76
2023/01/11 04:31:24;;;;;;;10.18;8.18;;;3.30;99.90;;;;;;5092159;28;20024;-76
2023/01/11 04:33:50;;;;;;;12.27;7.88;;;3.30;99.90;;;;;;5079524;28;20506;-77
2023/01/11 04:36:16;;;;;;;13.85;8.18;;;3.30;99.90;;;;;;5092972;28;20051;-76
2023/01/11 04:38:41;;;;;;;12.13;8.93;;;3.30;99.90;;;;;;5092902;28;20049;-76
2023/01/11 04:43:55;;;;;;;12.35;8.20;;;3.30;99.90;;;;;;5092868;28;20043;-76
2023/01/11 04:46:22;;;;;;;17.95;8.52;;;3.40;99.90;;;;;;5094644;28;20039;-76
2023/01/11 04:48:48;;;;;;;18.45;9.00;;;3.40;99.90;;;;;;5080056;28;20020;-76
2023/01/11 04:51:14;;;;;;;15.57;9.20;;;3.40;99.90;;;;;;5095618;28;20035;-76
2023/01/11 04:53:39;;;;;;;17.95;10.85;;;3.40;99.90;;;;;;5093853;28;20028;-76
2023/01/11 04:56:06;;;;;;;14.20;10.25;;;3.50;99.90;;;;;;5074897;28;20033;-76
2023/01/11 04:58:34;;;;;;;18.17;11.07;;;3.60;99.90;;;;;;5092320;28;20032;-76
2023/01/11 05:01:06;;;;;;;16.20;12.68;;;3.60;99.90;;;;;;5072305;28;20056;-77
2023/01/11 05:03:32;;;;;;;19.80;12.15;;;3.70;99.90;;;;;;5096650;28;20094;-76
2023/01/11 05:05:59;;;;;;;26.45;13.02;;;3.70;99.90;;;;;;5090136;28;20062;-76
2023/01/11 05:08:27;;;;;;;24.70;13.02;;;3.80;99.90;;;;;;5093332;28;20466;-76
2023/01/11 05:10:55;;;;;;;21.05;11.45;;;3.80;99.90;;;;;;5079560;28;20050;-76
2023/01/11 05:13:40;;;;;;;26.20;13.73;;;3.90;99.90;;;;;;5074099;28;20047;-76
2023/01/11 05:16:09;;;;;;;29.80;15.43;;;3.90;99.90;;;;;;5069790;28;20411;-76
2023/01/11 05:18:37;;;;;;;19.02;13.23;;;3.90;99.90;;;;;;5089751;28;20048;-76
2023/01/11 05:21:04;;;;;;;19.05;13.38;;;3.80;99.90;;;;;;5098190;28;20029;-76
2023/01/11 05:23:32;;;;;;;24.95;13.68;;;3.80;99.90;;;;;;5094439;28;20506;-77
2023/01/11 05:25:57;;;;;;;25.20;13.68;;;3.80;99.90;;;;;;5086628;28;20028;-77
2023/01/11 05:28:23;;;;;;;20.38;13.38;;;3.70;99.90;;;;;;5076501;28;20033;-76
2023/01/11 05:30:52;;;;;;;26.63;14.52;;;3.70;99.90;;;;;;5089765;28;20496;-75
2023/01/11 05:33:18;;;;;;;28.48;14.10;;;3.70;99.90;;;;;;5077348;28;20024;-77
2023/01/11 05:35:45;;;;;;;19.23;11.52;;;3.60;99.90;;;;;;5090601;28;20535;-78
2023/01/11 05:38:11;;;;;;;19.13;11.85;;;3.70;99.90;;;;;;5078489;28;20024;-76
2023/01/11 05:40:36;;;;;;;23.60;11.35;;;3.70;99.90;;;;;;5089778;28;20442;-76
2023/01/11 05:43:03;;;;;;;21.35;11.65;;;3.70;99.90;;;;;;5095986;28;20111;-76
2023/01/11 05:45:30;;;;;;;20.73;11.85;;;3.70;99.90;;;;;;5090853;28;20023;-76
2023/01/11 05:47:57;;;;;;;19.25;12.30;;;3.70;99.90;;;;;;5077889;28;20032;-75
2023/01/11 05:50:23;;;;;;;17.60;11.45;;;3.60;99.90;;;;;;5083727;28;20027;-76
2023/01/11 05:52:49;;;;;;;22.17;11.45;;;3.60;99.90;;;;;;5096181;28;20016;-76
2023/01/11 05:55:15;;;;;;;19.30;10.57;;;3.60;99.90;;;;;;5085443;28;20027;-77
2023/01/11 05:57:45;;;;;;;17.70;11.02;;;3.50;99.90;;;;;;5078278;28;20024;-77
2023/01/11 06:00:12;;;;;;;19.48;11.98;;;3.50;99.90;;;;;;5085768;28;20468;-76
2023/01/11 06:02:38;;;;;;;26.38;14.38;;;3.50;99.90;;;;;;5097098;28;20030;-76
2023/01/11 06:05:04;;;;;;;23.13;13.35;;;3.50;99.90;;;;;;5061861;28;20108;-76
2023/01/11 06:07:30;;;;;;;20.90;12.07;;;3.40;99.90;;;;;;5088336;28;20088;-75
2023/01/11 06:09:56;;;;;;;21.60;14.50;;;3.40;99.90;;;;;;5084560;28;20028;-76
2023/01/11 06:12:21;;;;;;;25.35;14.27;;;3.40;99.90;;;;;;5079020;28;20412;-76
2023/01/11 06:14:47;;;;;;;52.47;30.77;;;3.40;99.90;;;;;;5087829;28;20081;-76
2023/01/11 06:17:13;;;;;;;35.47;16.23;;;3.40;99.90;;;;;;5087763;28;20512;-76
2023/01/11 06:19:38;;;;;;;228.27;102.63;;;3.40;99.90;;;;;;5089568;28;20043;-75
2023/01/11 06:22:04;;;;;;;454.33;230.20;;;3.40;99.90;;;;;;5097155;28;20045;-75
2023/01/11 06:24:30;;;;;;;295.52;145.20;;;3.40;99.90;;;;;;5091497;28;20032;-76
2023/01/11 06:26:55;;;;;;;89.38;49.13;;;3.40;99.90;;;;;;5095773;28;20035;-76
2023/01/11 06:29:21;;;;;;;78.25;44.58;;;3.30;99.90;;;;;;5087462;28;20442;-76
2023/01/11 06:31:47;;;;;;;117.20;70.20;;;3.30;99.90;;;;;;5090289;28;20016;-76
2023/01/11 06:34:13;;;;;;;100.65;61.45;;;3.30;99.90;;;;;;5089581;28;20552;-76
2023/01/11 06:36:38;;;;;;;122.50;77.13;;;3.20;99.90;;;;;;5091192;28;20020;-76
2023/01/11 06:39:04;;;;;;;71.18;43.63;;;3.20;99.90;;;;;;5089222;28;20032;-76
2023/01/11 06:41:30;;;;;;;58.50;38.47;;;3.20;99.90;;;;;;5092251;28;20016;-76
2023/01/11 06:43:56;;;;;;;80.63;53.60;;;3.10;99.90;;;;;;5093671;28;20027;-76
2023/01/11 06:46:22;;;;;;;63.08;39.90;;;3.10;99.90;;;;;;5075280;28;20020;-76
2023/01/11 06:48:48;;;;;;;52.03;34.15;;;3.10;99.90;;;;;;5093234;28;20032;-76
2023/01/11 06:51:15;;;;;;;60.58;42.85;;;3.10;99.90;;;;;;5094723;28;20017;-76
2023/01/11 06:53:41;;;;;;;37.97;24.52;;;3.10;99.90;;;;;;5094685;28;20099;-76
2023/01/11 06:56:11;;;;;;;22.77;14.63;;;3.10;99.90;;;;;;5096306;28;20016;-76
2023/01/11 06:58:37;;;;;;;19.83;14.10;;;3.10;99.90;;;;;;5078023;28;20039;-76
2023/01/11 07:01:03;;;;;;;17.23;12.93;;;3.10;99.90;;;;;;5095745;28;20479;-76
2023/01/11 07:03:29;;;;;;;20.75;12.93;;;3.10;99.90;;;;;;5094293;28;20031;-76
2023/01/11 07:05:56;;;;;;;24.92;13.88;;;3.20;99.90;;;;;;5090020;28;20047;-77
2023/01/11 07:08:24;;;;;;;31.25;15.27;;;3.20;99.90;;;;;;5093655;28;20024;-76
2023/01/11 07:10:51;;;;;;;21.83;13.10;;;3.20;99.90;;;;;;5074350;28;20021;-76
2023/01/11 07:13:17;;;;;;;31.25;16.15;;;3.30;99.90;;;;;;5072094;28;20048;-76
2023/01/11 07:15:44;;;;;;;68.35;27.55;;;3.30;99.90;;;;;;5067973;28;20025;-76
2023/01/11 07:18:10;;;;;;;70.13;30.23;;;3.40;99.90;;;;;;5074549;28;20512;-76
2023/01/11 07:20:37;;;;;;;41.55;20.85;;;3.40;99.90;;;;;;5067327;28;20077;-76
2023/01/11 07:23:02;;;;;;;55.83;27.10;;;3.50;99.90;;;;;;5092969;28;20027;-76
2023/01/11 07:25:29;;;;;;;60.30;26.13;;;3.50;99.90;;;;;;5083845;28;20040;-76
2023/01/11 07:27:59;;;;;;;39.55;20.35;;;3.50;99.90;;;;;;5093367;28;20028;-76
2023/01/11 07:30:26;;;;;;;;;;;3.60;99.90;;;;;;5074988;28;20028;-78
2023/01/11 07:32:52;;;;;;;25.70;15.63;;;3.60;99.90;;;;;;5094550;28;19916;-78
2023/01/11 07:35:17;;;;;;;22.45;14.35;;;3.60;99.90;;;;;;5090995;28;20027;-78
2023/01/11 07:37:44;;;;;;;19.60;13.07;;;3.70;99.90;;;;;;5094263;28;20548;-78
2023/01/11 07:40:10;;;;;;;23.48;14.75;;;3.70;99.90;;;;;;5091756;28;20428;-75
2023/01/11 07:45:20;;;;;;;46.30;29.75;;;3.80;99.90;;;;;;5091876;28;20051;-78
2023/01/11 07:47:50;;;;;;;29.33;15.18;;;3.80;99.90;;;;;;5097128;28;20024;-78
2023/01/11 07:50:16;;;;;;;21.52;13.35;;;3.80;99.90;;;;;;5074210;28;20020;-78
2023/01/11 07:52:48;;;;;;;19.98;13.88;;;3.80;99.90;;;;;;5098200;28;20020;-78
2023/01/11 07:55:14;;;;;;;20.70;14.00;;;3.80;99.90;;;;;;5094083;28;20012;-78
2023/01/11 07:57:40;;;;;;;59.55;36.45;;;3.80;99.90;;;;;;5098082;28;20028;-76
2023/01/11 08:00:07;;;;;;;36.30;29.55;;;3.80;99.90;;;;;;5076955;28;20024;-78
2023/01/11 08:02:32;;;;;;;23.83;17.20;;;3.80;99.90;;;;;;5098516;28;20016;-78
2023/01/11 08:04:58;;;;;;;29.35;18.63;;;3.80;99.90;;;;;;5095291;28;20084;-77
2023/01/11 08:07:24;;;;;;;23.95;15.10;;;3.90;99.90;;;;;;5098886;28;20588;-77
2023/01/11 08:09:49;;;;;;;25.40;14.88;;;3.90;99.90;;;;;;5093467;28;20025;-77
2023/01/11 08:14:59;;;;;;;34.38;21.38;;;4.00;99.90;;;;;;5092399;28;20131;-77
2023/01/11 08:17:25;;;;;;;37.70;24.95;;;4.00;99.90;;;;;;5080523;28;20051;-77
2023/01/11 08:19:51;;;;;;;26.13;16.48;;;4.00;99.90;;;;;;5092131;28;20031;-77
2023/01/11 08:22:17;;;;;;;25.65;14.63;;;4.00;99.90;;;;;;5098772;28;20024;-77
2023/01/11 08:24:42;;;;;;;49.00;32.22;;;4.00;99.90;;;;;;5079222;28;20024;-77
2023/01/11 08:27:08;;;;;;;23.35;15.30;;;4.00;99.90;;;;;;5087558;28;20380;-77
2023/01/11 08:29:34;;;;;;;26.85;16.33;;;4.10;99.90;;;;;;5091889;28;20031;-77
2023/01/11 08:32:00;;;;;;;47.60;30.60;;;4.10;99.90;;;;;;5097892;28;20031;-78
2023/01/11 08:34:27;;;;;;;20.95;14.23;;;4.10;99.90;;;;;;5094357;28;20032;-76
2023/01/11 08:36:55;;;;;;;25.60;15.43;;;4.20;99.90;;;;;;5094621;28;20024;-76
2023/01/11 08:39:21;;;;;;;25.35;18.00;;;4.30;99.90;;;;;;5078041;28;20031;-76
2023/01/11 08:41:47;;;;;;;50.53;35.17;;;4.30;99.90;;;;;;5098865;28;20024;-76
2023/01/11 08:44:12;;;;;;;258.42;171.50;;;4.40;99.90;;;;;;5097257;28;20028;-76
2023/01/11 08:46:38;;;;;;;124.00;87.63;;;4.40;99.90;;;;;;5096976;28;20116;-76
2023/01/11 08:49:10;;;;;;;103.15;67.78;;;4.50;99.90;;;;;;5096520;28;20028;-76
2023/01/11 08:51:37;;;;;;;52.97;35.00;;;4.50;99.90;;;;;;5079555;28;20504;-77
2023/01/11 08:54:03;;;;;;;97.18;64.65;;;4.60;99.90;;;;;;5092218;28;20024;-76
2023/01/11 08:56:29;;;;;;;44.70;24.83;;;4.60;99.90;;;;;;5098315;28;20032;-77
2023/01/11 08:58:54;;;;;;;22.52;13.82;;;4.70;99.90;;;;;;5077556;28;20289;-76
2023/01/11 09:01:20;;;;;;;19.92;12.35;;;4.80;99.90;;;;;;5097278;28;20074;-76
2023/01/11 09:03:46;;;;;;;23.55;12.63;;;4.80;99.90;;;;;;5078085;28;20032;-77
2023/01/11 09:06:11;;;;;;;22.75;13.48;;;4.90;99.90;;;;;;5080800;28;20028;-77
2023/01/11 09:08:37;;;;;;;26.63;14.50;;;5.00;99.90;;;;;;5091871;28;20111;-77
2023/01/11 09:11:52;;;;;;;22.88;15.00;;;5.00;99.90;;;;;;5078575;28;20027;-77
2023/01/11 09:13:48;;;;;;;28.38;19.25;;;5.00;99.90;;;;;;5092285;28;20047;-77
2023/01/11 09:16:14;;;;;;;27.73;17.30;;;5.10;99.90;;;;;;5081163;28;20049;-77
2023/01/11 09:18:40;;;;;;;21.80;15.38;;;5.20;99.90;;;;;;5091238;28;20103;-77
2023/01/11 09:21:05;;;;;;;23.55;16.58;;;5.30;99.90;;;;;;5077216;28;20035;-77
2023/01/11 09:23:31;;;;;;;87.90;55.67;;;5.50;99.90;;;;;;5092279;28;20111;-77
2023/01/11 09:25:57;;;;;;;24.48;17.52;;;5.60;99.90;;;;;;5075490;28;20036;-77
2023/01/11 09:28:22;;;;;;;105.90;67.35;;;5.70;99.90;;;;;;5090923;28;20042;-76
2023/01/11 09:30:50;;;;;;;28.88;18.40;;;5.90;99.90;;;;;;5093934;28;20024;-76
2023/01/11 09:33:15;;;;;;;25.73;15.32;;;5.90;99.90;;;;;;5075376;28;20024;-76
2023/01/11 09:35:41;;;;;;;26.95;16.00;;;5.90;99.90;;;;;;5078042;28;20016;-77
2023/01/11 09:38:07;;;;;;;31.05;15.73;;;6.00;99.90;;;;;;5074495;28;20783;-77
2023/01/11 09:40:47;;;;;;;24.80;13.63;;;6.00;99.90;;;;;;5094995;28;20027;-76
2023/01/11 09:43:16;;;;;;;21.40;14.55;;;6.10;99.90;;;;;;5077886;28;20032;-76
2023/01/11 09:45:45;;;;;;;20.98;14.68;;;6.20;99.90;;;;;;5097530;28;20031;-77
2023/01/11 09:48:27;;;;;;;21.73;14.10;;;6.30;99.90;;;;;;5074372;28;20028;-77
2023/01/11 09:50:54;;;;;;;21.33;13.77;;;6.30;99.90;;;;;;5096088;28;20020;-77
2023/01/11 09:53:36;;;;;;;22.15;13.13;;;6.40;99.90;;;;;;5094661;28;20429;-77
2023/01/11 09:56:05;;;;;;;31.30;15.48;;;6.30;99.90;;;;;;5077703;28;20066;-77
2023/01/11 09:58:49;;;;;;;24.48;14.98;;;6.40;99.90;;;;;;5093405;28;20061;-77
2023/01/11 10:02:04;;;;;;;22.45;15.82;;;6.40;99.90;;;;;;5075216;28;20054;-77
2023/01/11 10:04:57;;;;;;;24.98;15.23;;;6.30;99.90;;;;;;5082519;28;20559;-77
2023/01/11 10:07:33;;;;;;;25.38;15.77;;;6.30;99.90;;;;;;5079603;28;20084;-77
2023/01/11 10:10:30;;;;;;;25.52;16.02;;;6.20;99.90;;;;;;5078671;28;20036;-77
2023/01/11 10:13:44;;;;;;;21.67;14.63;;;6.30;99.90;;;;;;5086029;28;20049;-77
2023/01/11 10:16:43;;;;;;;28.52;16.00;;;6.30;99.90;;;;;;5093841;28;20027;-77
2023/01/11 10:19:21;;;;;;;24.98;17.55;;;6.30;99.90;;;;;;5076227;28;20034;-77
2023/01/11 10:22:03;;;;;;;15.57;8.68;;;6.50;99.90;;;;;;5097587;28;20038;-78
2023/01/11 10:24:39;;;;;;;8.23;7.18;;;6.60;99.90;;;;;;5096700;28;20069;-79
2023/01/11 10:27:16;;;;;;;11.68;6.60;;;7.10;99.90;;;;;;5076992;28;20052;-77
2023/01/11 10:30:05;;;;;;;12.13;7.07;;;7.50;99.90;;;;;;5094551;28;20024;-77
2023/01/11 10:32:52;;;;;;;9.10;5.80;;;7.80;99.90;;;;;;5095145;28;20046;-78
2023/01/11 10:38:32;;;;;;;9.00;5.25;;;8.20;99.90;;;;;;5095970;28;20020;-78
2023/01/11 10:41:15;;;;;;;7.85;6.10;;;8.20;99.90;;;;;;5098623;28;20031;-78
2023/01/11 10:43:46;;;;;;;11.48;6.65;;;8.30;99.90;;;;;;5097283;28;20028;-78
2023/01/11 10:46:22;;;;;;;9.77;6.13;;;8.40;99.90;;;;;;5095370;28;20032;-77
2023/01/11 10:48:56;;;;;;;12.38;5.60;;;8.40;99.90;;;;;;5093575;28;20107;-78
2023/01/11 10:51:30;;;;;;;6.55;5.35;;;8.40;99.90;;;;;;5077321;28;20093;-77
2023/01/11 10:53:59;;;;;;;7.93;5.25;;;8.50;99.90;;;;;;5091671;28;20040;-79
2023/01/11 10:56:48;;;;;;;7.78;5.50;;;8.60;99.90;;;;;;5077160;28;20031;-78
2023/01/11 10:59:37;;;;;;;10.73;5.68;;;8.70;99.90;;;;;;5031062;28;20036;-77
2023/01/11 11:02:27;;;;;;;8.90;5.22;;;8.70;99.90;;;;;;5077780;28;20040;-77
2023/01/11 11:05:00;;;;;;;7.15;5.53;;;8.60;99.90;;;;;;5077088;28;20092;-78
2023/01/11 11:07:35;;;;;;;14.75;6.38;;;8.40;99.90;;;;;;5092671;28;20063;-77
2023/01/11 11:10:20;;;;;;;52.47;19.45;;;8.30;99.90;;;;;;5089806;28;20372;-77
2023/01/11 11:13:03;;;;;;;19.42;8.85;;;8.30;99.90;;;;;;5089475;28;20067;-76
2023/01/11 11:15:32;;;;;;;11.95;7.13;;;8.30;99.90;;;;;;5099782;28;20028;-78
2023/01/11 11:17:58;;;;;;;14.07;6.57;;;8.30;99.90;;;;;;5097791;28;20142;-78
2023/01/11 11:20:29;;;;;;;11.50;7.28;;;8.30;99.90;;;;;;5098913;28;20046;-77
2023/01/11 11:22:56;;;;;;;28.95;14.52;;;8.30;99.90;;;;;;5098480;28;20510;-78
2023/01/11 11:25:32;;;;;;;13.32;7.75;;;8.30;99.90;;;;;;5099258;28;20025;-78
2023/01/11 11:28:25;;;;;;;11.93;8.35;;;8.40;99.90;;;;;;5094778;28;20082;-77
2023/01/11 11:30:53;;;;;;;10.52;7.35;;;8.50;99.90;;;;;;5103376;28;20053;-78
2023/01/11 11:33:35;;;;;;;13.82;7.55;;;8.50;99.90;;;;;;5096042;28;20457;-77
2023/01/11 11:36:07;;;;;;;13.98;7.60;;;8.60;99.90;;;;;;5083801;28;20031;-77
2023/01/11 11:38:39;;;;;;;12.45;9.40;;;8.70;99.90;;;;;;5098971;28;20028;-77
2023/01/11 11:41:16;;;;;;;11.20;8.05;;;8.80;99.90;;;;;;5080675;28;20047;-79
2023/01/11 11:43:47;;;;;;;11.82;6.93;;;8.80;99.90;;;;;;5100992;28;20055;-77
2023/01/11 11:46:12;;;;;;;10.15;5.47;;;9.00;99.90;;;;;;5080618;28;20391;-78
2023/01/11 11:48:39;;;;;;;10.07;6.93;;;9.00;99.90;;;;;;5096814;28;20019;-78
2023/01/11 11:51:18;;;;;;;16.00;6.63;;;9.10;99.90;;;;;;5098800;28;20024;-77
2023/01/11 11:53:54;;;;;;;8.05;6.18;;;9.20;99.90;;;;;;5079771;28;20498;-80
2023/01/11 11:56:23;;;;;;;8.15;5.95;;;9.30;99.90;;;;;;5075296;28;20016;-78
2023/01/11 11:58:49;;;;;;;6.78;4.82;;;9.40;99.90;;;;;;5077929;28;20468;-78
2023/01/11 12:01:23;;;;;;;11.40;5.25;;;9.50;99.90;;;;;;5081430;28;20031;-77
2023/01/11 12:03:52;;;;;;;9.55;5.65;;;9.50;99.90;;;;;;5080337;28;20028;-78
2023/01/11 12:06:27;;;;;;;8.50;5.78;;;9.60;99.90;;;;;;5103100;28;20093;-78
2023/01/11 12:08:53;;;;;;;11.70;6.13;;;9.60;99.90;;;;;;5075438;28;20069;-77
2023/01/11 12:11:31;;;;;;;8.57;6.38;;;9.60;99.90;;;;;;5099829;28;20016;-77
2023/01/11 12:14:22;;;;;;;10.38;6.35;;;9.70;99.90;;;;;;5070741;28;20555;-77
2023/01/11 12:16:48;;;;;;;8.13;5.47;;;9.70;99.90;;;;;;5089007;28;20039;-77
2023/01/11 12:19:42;;;;;;;10.15;6.03;;;9.80;99.90;;;;;;5070863;28;20063;-77
2023/01/11 12:22:22;;;;;;;9.77;5.72;;;9.80;99.90;;;;;;5090354;28;20028;-78
2023/01/11 12:25:12;;;;;;;11.60;6.32;;;9.90;99.90;;;;;;5065101;28;20033;-77
2023/01/11 12:27:53;;;;;;;4.90;4.40;;;9.90;99.90;;;;;;5089029;28;20028;-80
2023/01/11 12:30:28;;;;;;;9.98;5.40;;;10.00;99.90;;;;;;5086621;28;20461;-77
2023/01/11 12:33:04;;;;;;;11.00;6.63;;;10.10;99.90;;;;;;5066459;28;20036;-78
2023/01/11 12:35:43;;;;;;;9.93;6.25;;;10.10;99.90;;;;;;5084688;28;20017;-77
2023/01/11 12:38:17;;;;;;;8.40;5.63;;;10.20;99.90;;;;;;5084156;28;20032;-78
2023/01/11 12:41:04;;;;;;;10.10;4.85;;;10.20;99.90;;;;;;5084815;28;20542;-78
2023/01/11 12:43:35;;;;;;;8.10;4.97;;;10.30;99.90;;;;;;5084445;28;20025;-77
2023/01/11 12:46:29;;;;;;;17.80;6.05;;;10.30;99.90;;;;;;5078474;28;20025;-74
2023/01/11 12:49:22;;;;;;;8.73;6.00;;;10.30;99.90;;;;;;5054633;28;20098;-75
2023/01/11 12:52:10;;;;;;;10.95;5.55;;;10.40;99.90;;;;;;5084345;28;20043;-75
2023/01/11 12:55:04;;;;;;;11.27;6.07;;;10.40;99.90;;;;;;5078870;28;20055;-75
2023/01/11 12:57:59;;;;;;;8.68;5.25;;;10.50;99.90;;;;;;5073362;28;20052;-75
2023/01/11 13:00:41;;;;;;;17.90;7.50;;;10.50;99.90;;;;;;5082797;28;20483;-75
2023/01/11 13:03:21;;;;;;;9.20;4.60;;;10.60;99.90;;;;;;5081875;28;20059;-75
2023/01/11 13:06:18;;;;;;;8.95;4.95;;;10.60;99.90;;;;;;5068927;28;20060;-74
2023/01/11 13:09:12;;;;;;;11.50;5.47;;;10.60;99.90;;;;;;5086548;28;20043;-77
2023/01/11 13:11:56;;;;;;;11.70;6.20;;;10.70;99.90;;;;;;5090260;28;20024;-78
2023/01/11 13:14:44;;;;;;;8.18;4.35;;;10.60;99.90;;;;;;5082701;28;20028;-77
2023/01/11 13:17:36;;;;;;;16.10;5.60;;;10.60;99.90;;;;;;5070601;28;20020;-77
2023/01/11 13:20:36;;;;;;;18.23;5.45;;;10.50;99.90;;;;;;5088229;28;20028;-77
2023/01/11 13:23:24;;;;;;;13.13;4.70;;;10.40;99.90;;;;;;5087967;28;20076;-78
2023/01/11 13:25:52;;;;;;;10.32;5.00;;;10.40;99.90;;;;;;5083616;28;20063;-77
2023/01/11 13:28:32;;;;;;;8.10;4.95;;;10.40;99.90;;;;;;5084582;28;20020;-77